Time;durP1;ratioP1;P1;durP2;ratioP2;P2;SDS_P1;SDS_P2;PMS_P1;PMS_P2;Temp;Humidity;BMP_temperature;BMP_pressure;BME280_temperature;BME280_humidity;BME280_pressure;Samples;Min_cycle;Max_cycle;Signal;HPM_P1;HPM_P2
2021/05/16 00:00:32;;;;;;;21.10;19.30;;;9.30;99.90;;;;;;4956892;28;20459;-85
2021/05/16 00:03:01;;;;;;;21.53;19.73;;;9.40;99.90;;;;;;4957143;28;21049;-86
2021/05/16 00:05:38;;;;;;;31.20;20.53;;;9.40;99.90;;;;;;4937150;29;20452;-85
2021/05/16 00:08:06;;;;;;;20.17;18.10;;;9.50;99.90;;;;;;4937661;29;20828;-86
2021/05/16 00:10:38;;;;;;;17.97;16.37;;;9.50;99.90;;;;;;4956302;28;20444;-85
2021/05/16 00:13:11;;;;;;;31.23;17.30;;;9.50;99.90;;;;;;4956762;28;20472;-84
2021/05/16 00:15:38;;;;;;;20.40;15.50;;;9.50;99.90;;;;;;4956212;28;20491;-83
2021/05/16 00:21:05;;;;;;;27.33;12.97;;;9.60;99.90;;;;;;4935395;29;20460;-86
2021/05/16 00:24:11;;;;;;;16.40;10.27;;;9.60;99.90;;;;;;4937587;29;20456;-85
2021/05/16 00:26:49;;;;;;;14.80;10.00;;;9.80;99.90;;;;;;4941481;28;20506;-85
2021/05/16 00:29:52;;;;;;;16.20;9.07;;;9.90;99.90;;;;;;4956704;28;20463;-85
2021/05/16 00:32:28;;;;;;;17.63;7.53;;;10.00;99.90;;;;;;4896411;29;20515;-84
2021/05/16 00:35:10;;;;;;;14.57;6.10;;;10.00;99.90;;;;;;4936022;29;20495;-83
2021/05/16 00:37:44;;;;;;;13.90;6.07;;;10.10;99.90;;;;;;4937455;29;20484;-85
2021/05/16 00:40:28;;;;;;;24.03;6.37;;;9.90;99.90;;;;;;4937150;29;20508;-85
2021/05/16 00:43:01;;;;;;;17.53;6.10;;;10.10;99.90;;;;;;4949641;28;20489;-84
2021/05/16 00:45:46;;;;;;;15.50;4.70;;;10.10;99.90;;;;;;4956145;28;20554;-85
2021/05/16 00:51:10;;;;;;;17.53;4.43;;;9.90;99.90;;;;;;4914780;29;20536;-84
2021/05/16 00:56:27;;;;;;;12.90;5.53;;;9.70;99.90;;;;;;4953170;28;20456;-86
2021/05/16 01:01:52;;;;;;;11.83;5.80;;;9.50;99.90;;;;;;4928867;28;20449;-84
2021/05/16 01:04:38;;;;;;;13.83;5.60;;;9.50;99.90;;;;;;4954340;28;20867;-84
2021/05/16 01:10:18;;;;;;;17.07;5.93;;;9.20;99.90;;;;;;4955753;28;20470;-85
2021/05/16 01:13:15;;;;;;;;;;;;;;;;;;;;;
2021/05/16 01:15:47;;;;;;;12.27;6.83;;;9.30;99.90;;;;;;4936511;29;20456;-85
2021/05/16 01:18:35;;;;;;;22.60;8.73;;;9.10;99.90;;;;;;4951151;28;20487;-85
2021/05/16 01:21:23;;;;;;;19.83;8.87;;;8.80;99.90;;;;;;4955599;28;20948;-85
2021/05/16 01:24:16;;;;;;;20.20;9.93;;;9.00;99.90;;;;;;4936505;29;20457;-84
2021/05/16 01:26:46;;;;;;;15.33;11.10;;;8.90;99.90;;;;;;4939077;28;20456;-85
2021/05/16 01:29:41;;;;;;;17.57;10.80;;;8.80;99.90;;;;;;4955366;28;20467;-85
2021/05/16 01:35:05;;;;;;;18.80;12.10;;;8.90;99.90;;;;;;4936184;28;20456;-85
2021/05/16 01:37:51;;;;;;;17.83;11.70;;;8.90;99.90;;;;;;4946463;28;20551;-84
2021/05/16 01:40:52;;;;;;;14.27;12.87;;;8.50;99.90;;;;;;4944826;28;20451;-85
2021/05/16 01:43:54;;;;;;;;;;;;;;;;;;;;;
2021/05/16 01:47:01;;;;;;;16.17;14.47;;;8.60;99.90;;;;;;4954545;28;20481;-85
2021/05/16 01:50:05;;;;;;;;;;;;;;;;;;;;;
2021/05/16 01:52:46;;;;;;;20.00;15.20;;;8.50;99.90;;;;;;4935326;29;20467;-85
2021/05/16 01:55:31;;;;;;;15.30;11.63;;;8.60;99.90;;;;;;4936144;29;20612;-84
2021/05/16 01:58:16;;;;;;;22.13;12.50;;;8.70;99.90;;;;;;4935865;29;20484;-83
2021/05/16 02:01:13;;;;;;;13.53;12.17;;;8.80;99.90;;;;;;4945588;28;20542;-85
2021/05/16 02:03:57;;;;;;;19.00;12.77;;;8.70;99.90;;;;;;4948213;28;20463;-85
2021/05/16 02:06:46;;;;;;;17.93;16.10;;;8.60;99.90;;;;;;4939685;28;20573;-85
2021/05/16 02:09:22;;;;;;;;;;;;;;;;;;;;;
2021/05/16 02:12:12;;;;;;;18.93;16.90;;;8.60;99.90;;;;;;4946332;28;20479;-85
2021/05/16 02:15:00;;;;;;;15.33;13.80;;;8.70;99.90;;;;;;4954372;28;20467;-84
2021/05/16 02:17:46;;;;;;;20.93;18.87;;;8.60;99.90;;;;;;4954175;28;20484;-85
2021/05/16 02:23:37;;;;;;;20.07;18.17;;;8.70;99.90;;;;;;4948961;28;20461;-85
2021/05/16 02:26:38;;;;;;;21.90;20.00;;;8.70;99.90;;;;;;4935506;29;20459;-85
2021/05/16 02:33:15;;;;;;;21.87;19.97;;;8.50;99.90;;;;;;4832301;29;20456;-84
2021/05/16 02:36:05;;;;;;;24.10;22.00;;;8.30;99.90;;;;;;4854492;29;20473;-85
2021/05/16 02:39:10;;;;;;;30.13;28.00;;;8.20;99.90;;;;;;4827501;29;20600;-83
2021/05/16 02:41:44;;;;;;;35.57;33.37;;;8.10;99.90;;;;;;4895223;29;20462;-85
2021/05/16 02:44:22;;;;;;;34.40;32.20;;;8.00;99.90;;;;;;4950756;28;20488;-85
2021/05/16 02:46:58;;;;;;;35.47;32.93;;;8.20;99.90;;;;;;4954616;28;20512;-84
2021/05/16 02:49:34;;;;;;;39.13;36.77;;;8.10;99.90;;;;;;4935792;29;20460;-84
2021/05/16 02:52:27;;;;;;;42.73;39.90;;;7.80;99.90;;;;;;4935124;29;20480;-85
2021/05/16 02:55:13;;;;;;;;;;;;;;;;;;;;;
2021/05/16 03:03:58;;;;;;;40.97;38.27;;;7.90;99.90;;;;;;4940966;28;20456;-85
2021/05/16 03:06:57;;;;;;;38.80;36.30;;;7.80;99.90;;;;;;4938953;29;20460;-85
2021/05/16 03:09:37;;;;;;;35.97;33.07;;;7.90;99.90;;;;;;4942798;28;20467;-85
2021/05/16 03:12:21;;;;;;;35.57;33.20;;;8.00;99.90;;;;;;4938647;29;20480;-85
2021/05/16 03:14:47;;;;;;;34.47;32.07;;;7.80;99.90;;;;;;4943549;28;20452;-80
2021/05/16 03:17:15;;;;;;;37.00;34.70;;;7.80;99.90;;;;;;4945413;28;20987;-83
2021/05/16 03:19:58;;;;;;;42.37;38.70;;;7.90;99.90;;;;;;4942537;28;20456;-84
2021/05/16 03:22:44;;;;;;;39.57;36.60;;;7.80;99.90;;;;;;4947702;28;20460;-85
2021/05/16 03:25:47;;;;;;;36.00;33.30;;;7.80;99.90;;;;;;4954103;28;20459;-85
2021/05/16 03:28:14;;;;;;;33.93;31.73;;;7.80;99.90;;;;;;4949082;28;20456;-83
2021/05/16 03:33:50;;;;;;;34.77;32.47;;;7.70;99.90;;;;;;4907744;29;20452;-85
2021/05/16 03:39:19;;;;;;;30.17;27.97;;;7.80;99.90;;;;;;4945655;28;20532;-87
2021/05/16 03:42:00;;;;;;;30.43;27.87;;;7.70;99.90;;;;;;4950757;28;20461;-84
2021/05/16 03:44:34;;;;;;;27.00;25.33;;;7.80;99.90;;;;;;4950720;28;20456;-83
2021/05/16 03:47:05;;;;;;;29.07;27.07;;;8.00;99.90;;;;;;4957120;28;20993;-84
2021/05/16 03:49:32;;;;;;;32.13;30.03;;;8.00;99.90;;;;;;4945177;28;20920;-84
2021/05/16 03:52:04;;;;;;;33.30;30.90;;;8.00;99.90;;;;;;4940295;29;20521;-84
2021/05/16 03:54:36;;;;;;;31.47;29.47;;;8.20;99.90;;;;;;4949696;28;20458;-85
2021/05/16 03:57:05;;;;;;;38.10;35.77;;;8.30;99.90;;;;;;4948979;28;20520;-83
2021/05/16 03:59:37;;;;;;;37.83;34.93;;;8.20;99.90;;;;;;4957009;28;20467;-85
2021/05/16 04:02:03;;;;;;;41.10;37.97;;;8.20;99.90;;;;;;4946060;28;20461;-86
2021/05/16 04:04:50;;;;;;;39.60;36.97;;;8.40;99.90;;;;;;4951231;28;20502;-87
2021/05/16 04:07:22;;;;;;;36.57;34.47;;;8.30;99.90;;;;;;4944946;28;20449;-84
2021/05/16 04:09:48;;;;;;;39.17;36.87;;;8.10;99.90;;;;;;4937809;29;20536;-84
2021/05/16 04:12:17;;;;;;;43.40;40.47;;;8.10;99.90;;;;;;4941843;28;20461;-86
2021/05/16 04:14:44;;;;;;;35.73;33.53;;;8.10;99.90;;;;;;4945248;28;20562;-85
2021/05/16 04:20:16;;;;;;;21.60;19.37;;;8.20;99.90;;;;;;4934976;28;20446;-87
2021/05/16 04:22:43;;;;;;;22.63;20.47;;;8.40;99.90;;;;;;4955391;28;20809;-81
2021/05/16 04:25:12;;;;;;;25.73;23.07;;;8.40;99.90;;;;;;4944217;28;20495;-85
2021/05/16 04:27:48;;;;;;;24.93;23.10;;;8.40;99.90;;;;;;4939032;28;20469;-86
2021/05/16 04:30:30;;;;;;;26.47;24.47;;;8.60;99.90;;;;;;4937240;29;20468;-86
2021/05/16 04:33:23;;;;;;;28.73;26.43;;;8.60;99.90;;;;;;4937495;29;20465;-86
2021/05/16 04:35:59;;;;;;;24.50;22.20;;;8.80;99.90;;;;;;4937338;29;20445;-85
2021/05/16 04:38:40;;;;;;;26.10;23.50;;;9.00;99.90;;;;;;4938760;29;20480;-84
2021/05/16 04:41:24;;;;;;;24.87;22.57;;;9.10;99.90;;;;;;4952029;28;20466;-85
2021/05/16 04:43:55;;;;;;;20.80;18.90;;;9.10;99.90;;;;;;4937276;29;20536;-86
2021/05/16 04:46:32;;;;;;;22.17;16.83;;;9.50;99.90;;;;;;4951342;28;20463;-85
2021/05/16 04:49:03;;;;;;;16.13;14.33;;;9.60;99.90;;;;;;4941004;28;20514;-87
2021/05/16 04:51:54;;;;;;;21.43;14.43;;;9.70;99.90;;;;;;4946341;28;20484;-84
2021/05/16 04:54:48;;;;;;;15.80;11.97;;;9.90;99.90;;;;;;4937910;28;20449;-86
2021/05/16 04:57:21;;;;;;;15.10;10.10;;;9.90;99.90;;;;;;4953913;28;20475;-85
2021/05/16 05:00:09;;;;;;;16.70;11.37;;;10.00;99.90;;;;;;4944574;28;20834;-84
2021/05/16 05:03:03;;;;;;;14.47;9.17;;;10.10;99.90;;;;;;4949060;28;20492;-86
2021/05/16 05:05:56;;;;;;;20.13;8.50;;;10.10;99.90;;;;;;4952306;28;20515;-85
2021/05/16 05:12:18;;;;;;;17.57;9.07;;;10.30;99.90;;;;;;4934824;28;20487;-85
2021/05/16 05:18:24;;;;;;;15.37;7.63;;;10.40;99.90;;;;;;4954588;28;20617;-86
2021/05/16 05:25:10;;;;;;;;;;;;;;;;;;;;;
2021/05/16 05:38:35;;;;;;;19.27;5.40;;;10.80;99.90;;;;;;4755593;29;20539;-83
2021/05/16 05:41:27;;;;;;;19.17;5.83;;;11.00;99.90;;;;;;4848167;29;20546;-84
2021/05/16 05:47:18;;;;;;;14.83;4.77;;;11.20;99.90;;;;;;4912658;28;20455;-83
2021/05/16 05:50:06;;;;;;;13.30;3.97;;;11.20;99.90;;;;;;4941170;28;20491;-85
2021/05/16 05:55:32;;;;;;;16.50;4.27;;;11.20;99.90;;;;;;4937065;28;20541;-87
2021/05/16 05:58:35;;;;;;;;;;;;;;;;;;;;;
2021/05/16 06:04:12;;;;;;;14.73;4.87;;;10.80;99.90;;;;;;4952506;28;20452;-84
2021/05/16 06:06:46;;;;;;;15.10;5.60;;;10.80;99.90;;;;;;4954163;28;20456;-83
2021/05/16 06:09:12;;;;;;;27.20;7.20;;;10.90;99.90;;;;;;4942469;28;20571;-83
2021/05/16 06:11:39;;;;;;;19.67;7.23;;;10.80;99.90;;;;;;4939182;28;20444;-82
2021/05/16 06:14:09;;;;;;;16.23;8.23;;;10.80;99.90;;;;;;4941074;28;20539;-83
2021/05/16 06:16:40;;;;;;;20.53;13.70;;;10.60;99.90;;;;;;4937790;29;20465;-84
2021/05/16 06:19:15;;;;;;;20.60;18.33;;;10.50;99.90;;;;;;4950277;28;20484;-83
2021/05/16 06:21:43;;;;;;;31.37;28.73;;;10.50;99.90;;;;;;4943774;28;20463;-83
2021/05/16 06:24:14;;;;;;;41.87;39.30;;;10.30;99.90;;;;;;4946512;28;20457;-84
2021/05/16 06:26:57;;;;;;;;;;;;;;;;;;;;;
2021/05/16 06:29:31;;;;;;;60.63;56.77;;;10.20;99.90;;;;;;4936687;28;20452;-83
2021/05/16 06:32:01;;;;;;;71.33;66.77;;;10.20;99.90;;;;;;4941635;28;20550;-82
2021/05/16 06:34:27;;;;;;;70.50;66.87;;;10.20;99.90;;;;;;4949934;28;20455;-82
2021/05/16 06:36:55;;;;;;;94.70;88.70;;;10.20;99.90;;;;;;4937970;28;20477;-83
2021/05/16 06:39:26;;;;;;;93.40;88.70;;;10.30;99.90;;;;;;4941930;29;20508;-83
2021/05/16 06:41:53;;;;;;;97.83;93.03;;;10.50;99.90;;;;;;4953246;28;20463;-83
2021/05/16 06:44:27;;;;;;;91.63;86.93;;;10.60;99.90;;;;;;4952077;28;20444;-84
2021/05/16 06:46:53;;;;;;;84.40;79.47;;;10.60;99.90;;;;;;4944347;28;20455;-83
2021/05/16 06:49:20;;;;;;;98.83;94.00;;;10.70;99.90;;;;;;4943155;29;20460;-85
2021/05/16 06:51:48;;;;;;;92.33;87.57;;;10.90;99.90;;;;;;4940631;29;20937;-84
2021/05/16 06:54:17;;;;;;;86.10;81.50;;;11.00;99.90;;;;;;4956022;28;20483;-83
2021/05/16 06:56:44;;;;;;;95.57;91.07;;;11.10;99.90;;;;;;4950991;28;20496;-83
2021/05/16 06:59:11;;;;;;;85.80;80.93;;;11.10;99.90;;;;;;4943492;28;20484;-83
2021/05/16 07:01:45;;;;;;;64.17;60.70;;;11.20;99.90;;;;;;4958328;28;20483;-82
2021/05/16 07:04:16;;;;;;;71.87;67.80;;;11.10;99.90;;;;;;4947257;28;20469;-83
2021/05/16 07:07:39;;;;;;;;;;;;;;;;;;;;;
2021/05/16 07:10:07;;;;;;;78.67;74.27;;;11.10;99.90;;;;;;4952732;28;20480;-82
2021/05/16 07:12:33;;;;;;;75.27;70.80;;;11.20;99.90;;;;;;4953214;28;20555;-83
2021/05/16 07:15:07;;;;;;;72.80;68.80;;;11.40;99.90;;;;;;4957989;28;20529;-84
2021/05/16 07:17:48;;;;;;;;;;;;;;;;;;;;;
2021/05/16 07:20:17;;;;;;;57.80;53.97;;;11.50;99.90;;;;;;4937434;28;20505;-84
2021/05/16 07:22:47;;;;;;;59.53;56.13;;;11.50;99.90;;;;;;4938528;29;20551;-84
2021/05/16 07:25:17;;;;;;;47.10;43.37;;;11.40;99.90;;;;;;4939360;29;20453;-84
2021/05/16 07:27:52;;;;;;;63.30;59.70;;;11.40;99.90;;;;;;4938410;29;20555;-84
2021/05/16 07:30:28;;;;;;;42.60;39.60;;;11.50;99.90;;;;;;4952612;28;20506;-83
2021/05/16 07:33:11;;;;;;;;;;;;;;;;;;;;;
2021/05/16 07:35:57;;;;;;;62.43;59.03;;;11.70;99.90;;;;;;4941324;29;20455;-83
2021/05/16 07:38:23;;;;;;;48.23;44.10;;;12.10;99.90;;;;;;4947280;28;20520;-83
2021/05/16 07:40:51;;;;;;;33.23;30.80;;;12.40;99.90;;;;;;4951589;28;21015;-83
2021/05/16 07:43:19;;;;;;;28.47;23.83;;;12.40;99.90;;;;;;4953350;28;20809;-83
2021/05/16 07:45:46;;;;;;;18.03;14.07;;;12.60;99.90;;;;;;4955992;28;20489;-83
2021/05/16 07:48:17;;;;;;;25.50;19.67;;;12.90;99.90;;;;;;4954311;28;20467;-83
2021/05/16 07:50:44;;;;;;;24.20;19.77;;;13.20;99.90;;;;;;4955462;28;20513;-83
2021/05/16 07:53:11;;;;;;;19.80;6.53;;;13.40;99.90;;;;;;4943476;28;20480;-83
2021/05/16 07:55:44;;;;;;;22.83;7.80;;;13.40;93.90;;;;;;4945762;28;20459;-83
2021/05/16 07:58:10;;;;;;;27.80;6.97;;;13.70;99.20;;;;;;4945423;28;20587;-82
2021/05/16 08:00:40;;;;;;;17.83;3.60;;;13.30;90.70;;;;;;4938426;29;20467;-83
2021/05/16 08:03:08;;;;;;;21.83;3.90;;;13.40;90.20;;;;;;4940224;28;20536;-83
2021/05/16 08:05:34;;;;;;;16.80;3.50;;;13.00;90.60;;;;;;4941825;28;20463;-83
2021/05/16 08:08:21;;;;;;;20.83;4.33;;;12.70;94.60;;;;;;4941136;28;20543;-82
2021/05/16 08:10:52;;;;;;;15.47;3.87;;;12.30;94.10;;;;;;4944146;28;20971;-84
2021/05/16 08:13:21;;;;;;;22.60;7.53;;;12.30;94.70;;;;;;4941593;28;20546;-82
2021/05/16 08:15:49;;;;;;;16.23;6.83;;;12.40;98.60;;;;;;4945670;28;20461;-82
2021/05/16 08:18:33;;;;;;;17.60;9.50;;;12.70;97.10;;;;;;4949240;28;20857;-82
2021/05/16 08:21:00;;;;;;;19.17;6.53;;;13.00;97.70;;;;;;4943010;28;20457;-81
2021/05/16 08:23:26;;;;;;;17.10;5.87;;;13.50;90.50;;;;;;4945441;28;20464;-82
2021/05/16 08:25:53;;;;;;;16.73;2.53;;;14.10;91.00;;;;;;4946537;28;20465;-82
2021/05/16 08:28:19;;;;;;;17.47;3.27;;;13.90;79.00;;;;;;4943557;28;20465;-82
2021/05/16 08:30:48;;;;;;;19.40;3.03;;;13.50;82.70;;;;;;4938381;29;20468;-82
2021/05/16 08:33:16;;;;;;;20.77;2.17;;;13.30;80.70;;;;;;4945879;28;20466;-83
2021/05/16 08:35:47;;;;;;;20.67;2.30;;;13.50;72.30;;;;;;4956430;28;20456;-80
2021/05/16 08:38:13;;;;;;;18.00;1.90;;;14.20;64.90;;;;;;4947484;28;20476;-82
2021/05/16 08:40:40;;;;;;;27.23;2.37;;;14.60;60.10;;;;;;4943561;29;20470;-82
2021/05/16 08:43:08;;;;;;;20.70;1.70;;;15.20;57.40;;;;;;4949520;28;20999;-84
2021/05/16 08:45:36;;;;;;;28.07;2.30;;;15.20;42.10;;;;;;4949443;28;20457;-83
2021/05/16 08:48:11;;;;;;;22.47;1.70;;;16.40;40.80;;;;;;4937145;29;20467;-83
2021/05/16 08:50:40;;;;;;;26.27;2.47;;;17.00;34.10;;;;;;4942065;28;20578;-83
2021/05/16 08:53:08;;;;;;;29.20;2.70;;;16.90;31.10;;;;;;4948385;28;20448;-83
2021/05/16 08:55:37;;;;;;;25.80;2.33;;;16.80;25.30;;;;;;4949664;28;21016;-84
2021/05/16 08:58:07;;;;;;;33.40;2.47;;;16.20;24.50;;;;;;4935469;29;20488;-83
2021/05/16 09:00:44;;;;;;;32.90;2.20;;;16.50;25.60;;;;;;4944149;28;20514;-84
2021/05/16 09:03:12;;;;;;;27.50;1.77;;;16.30;28.30;;;;;;4941046;28;20455;-83
2021/05/16 09:05:43;;;;;;;27.90;2.73;;;16.30;28.40;;;;;;4935004;29;20999;-84
2021/05/16 09:08:27;;;;;;;25.50;2.07;;;16.30;21.80;;;;;;4938974;28;20568;-84
2021/05/16 09:10:57;;;;;;;29.63;2.20;;;16.40;22.70;;;;;;4946290;28;20491;-84
2021/05/16 09:13:31;;;;;;;29.90;2.30;;;16.20;23.80;;;;;;4935294;29;20460;-84
2021/05/16 09:16:21;;;;;;;25.57;1.67;;;15.80;24.40;;;;;;4942020;28;20532;-83
2021/05/16 09:19:08;;;;;;;26.07;2.37;;;15.80;24.10;;;;;;4931521;28;20516;-84
2021/05/16 09:21:38;;;;;;;29.53;2.30;;;15.60;24.30;;;;;;4935345;29;20463;-84
2021/05/16 09:24:38;;;;;;;27.30;1.93;;;15.30;26.70;;;;;;4949866;28;20483;-85
2021/05/16 09:27:41;;;;;;;26.70;2.47;;;14.90;25.00;;;;;;4953422;28;20531;-85
2021/05/16 09:31:07;;;;;;;;;;;;;;;;;;;;;
2021/05/16 09:33:54;;;;;;;26.57;2.07;;;16.50;21.10;;;;;;4945970;28;20479;-84
2021/05/16 09:37:03;;;;;;;;;;;;;;;;;;;;;
2021/05/16 09:40:16;;;;;;;27.70;2.03;;;15.60;21.00;;;;;;4921094;28;20480;-84
2021/05/16 09:46:33;;;;;;;;;;;;;;;;;;;;;
2021/05/16 09:53:06;;;;;;;;;;;;;;;;;;;;;
2021/05/16 10:33:25;;;;;;;28.23;1.97;;;17.20;15.10;;;;;;4921573;29;20911;-86
2021/05/16 10:36:28;;;;;;;33.13;1.83;;;17.50;10.40;;;;;;4930986;29;20475;-85
2021/05/16 10:39:47;;;;;;;;;;;;;;;;;;;;;
2021/05/16 11:11:34;;;;;;;;;;;;;;;;;;;;;
2021/05/16 11:14:31;;;;;;;44.67;2.10;;;19.50;1.00;;;;;;6213736;22;20471;-83
2021/05/16 11:17:37;;;;;;;48.00;2.83;;;19.20;1.00;;;;;;6251909;23;20410;-83
2021/05/16 11:20:54;;;;;;;42.70;2.30;;;18.60;1.00;;;;;;6262991;22;20894;-84
2021/05/16 11:23:35;;;;;;;41.30;3.37;;;18.70;1.00;;;;;;6264203;22;20791;-85
2021/05/16 11:26:36;;;;;;;39.80;2.20;;;18.40;1.00;;;;;;6254073;23;20463;-85
2021/05/16 11:29:31;;;;;;;;;;;;;;;;;;;;;
2021/05/16 11:35:49;;;;;;;34.90;1.87;;;17.60;2.80;;;;;;6228941;23;20430;-84
2021/05/16 11:38:24;;;;;;;35.17;1.80;;;17.50;2.80;;;;;;6170679;23;20436;-86
2021/05/16 11:41:37;;;;;;;34.73;2.00;;;18.10;2.60;;;;;;6170574;23;20466;-85
2021/05/16 11:47:43;;;;;;;37.90;2.40;;;18.60;1.10;;;;;;6158534;23;21012;-84
2021/05/16 11:51:02;;;;;;;;;;;;;;;;;;;;;
2021/05/16 12:02:28;;;;;;;43.13;2.00;;;19.70;1.00;;;;;;6209404;23;20406;-83
2021/05/16 12:28:02;;;;;;;39.07;2.77;;;18.50;1.00;;;;;;6225125;23;20490;-87
2021/05/16 12:30:50;;;;;;;38.60;2.47;;;18.30;1.00;;;;;;6179362;23;20490;-86
2021/05/16 12:33:29;;;;;;;36.27;2.07;;;18.30;1.20;;;;;;6224442;23;20926;-87
2021/05/16 12:36:12;;;;;;;;;;;;;;;;;;;;;
2021/05/16 12:39:03;;;;;;;35.40;2.50;;;18.60;1.00;;;;;;6214302;23;20753;-87
2021/05/16 12:41:36;;;;;;;39.43;3.23;;;19.10;1.00;;;;;;6214372;23;20414;-85
2021/05/16 12:44:45;;;;;;;69.70;11.13;;;19.80;1.00;;;;;;6215044;23;20396;-86
2021/05/16 12:50:57;;;;;;;;;;;;;;;;;;;;;
2021/05/16 12:53:40;;;;;;;;;;;;;;;;;;;;;
2021/05/16 13:00:08;;;;;;;44.00;3.40;;;18.90;1.00;;;;;;6020465;23;20504;-83
2021/05/16 13:02:39;;;;;;;38.47;2.43;;;17.70;1.00;;;;;;6040701;23;20423;-83
2021/05/16 13:05:15;;;;;;;44.77;4.80;;;17.40;3.40;;;;;;6214643;23;20400;-84
2021/05/16 13:07:56;;;;;;;39.83;3.13;;;17.30;6.90;;;;;;6215596;23;20471;-82
2021/05/16 13:10:38;;;;;;;42.37;5.50;;;17.40;9.00;;;;;;6214213;23;20396;-84
2021/05/16 13:13:15;;;;;;;36.93;3.80;;;17.60;9.80;;;;;;6214509;23;20791;-83
2021/05/16 13:16:09;;;;;;;39.43;6.27;;;17.30;5.60;;;;;;6214430;23;20474;-85
2021/05/16 13:21:49;;;;;;;;;;;;;;;;;;;;;
2021/05/16 13:25:01;;;;;;;32.57;2.03;;;16.50;17.20;;;;;;6224905;23;20398;-83
2021/05/16 13:34:03;;;;;;;31.57;1.70;;;17.60;11.70;;;;;;5934437;24;20488;-85
2021/05/16 13:36:37;;;;;;;30.57;1.63;;;19.50;4.60;;;;;;5977801;23;20448;-85
2021/05/16 13:39:05;;;;;;;33.17;1.60;;;20.20;1.00;;;;;;6180181;23;20416;-84
2021/05/16 13:41:37;;;;;;;32.97;1.90;;;21.00;1.00;;;;;;6214020;23;21224;-85
2021/05/16 13:44:14;;;;;;;36.40;1.80;;;21.50;1.00;;;;;;6224287;23;20487;-85
2021/05/16 13:46:45;;;;;;;40.43;1.97;;;20.80;1.00;;;;;;6223998;23;20411;-84
2021/05/16 13:49:16;;;;;;;41.60;2.07;;;21.10;1.00;;;;;;6222452;23;20412;-84
2021/05/16 13:51:58;;;;;;;40.20;1.63;;;21.60;1.00;;;;;;6224163;23;20400;-85
2021/05/16 13:54:30;;;;;;;41.00;1.67;;;22.20;1.00;;;;;;6225716;23;20462;-84
2021/05/16 13:57:12;;;;;;;41.67;1.63;;;22.30;1.00;;;;;;6215742;23;20439;-85
2021/05/16 14:00:01;;;;;;;43.57;1.77;;;22.30;1.00;;;;;;6215976;23;20440;-85
2021/05/16 14:02:28;;;;;;;46.33;2.00;;;21.50;1.00;;;;;;6225149;23;20451;-85
2021/05/16 14:05:03;;;;;;;44.90;2.10;;;21.60;1.00;;;;;;6224424;23;20432;-85
2021/05/16 14:07:46;;;;;;;49.53;2.53;;;20.50;1.00;;;;;;6225383;23;20443;-83
2021/05/16 14:10:19;;;;;;;42.60;2.30;;;19.40;1.00;;;;;;6215961;23;20415;-84
2021/05/16 14:15:33;;;;;;;38.67;1.80;;;19.00;1.00;;;;;;6213860;23;20479;-84
2021/05/16 14:18:05;;;;;;;38.80;1.83;;;18.70;1.00;;;;;;6225366;23;20462;-85
2021/05/16 14:20:32;;;;;;;36.97;1.97;;;18.90;3.10;;;;;;6224707;23;20404;-84
2021/05/16 14:23:00;;;;;;;36.60;1.73;;;18.80;2.10;;;;;;6225450;23;20494;-84
2021/05/16 14:25:29;;;;;;;37.10;1.70;;;18.70;1.00;;;;;;6215322;23;20394;-85
2021/05/16 14:27:55;;;;;;;35.60;1.70;;;18.90;1.60;;;;;;6225777;23;20876;-85
2021/05/16 14:30:23;;;;;;;38.67;1.60;;;18.60;1.00;;;;;;6215582;23;20446;-85
2021/05/16 14:32:50;;;;;;;35.37;1.70;;;19.30;1.00;;;;;;6215686;23;20722;-84
2021/05/16 14:35:21;;;;;;;34.60;1.83;;;19.80;1.00;;;;;;6213783;23;20945;-84
2021/05/16 14:37:55;;;;;;;35.23;1.70;;;20.10;1.00;;;;;;6225234;23;20935;-85
2021/05/16 14:40:21;;;;;;;38.80;2.20;;;20.90;1.00;;;;;;6214916;23;20971;-84
2021/05/16 14:42:57;;;;;;;;;;;;;;;;;;;;;
2021/05/16 14:45:27;;;;;;;40.00;2.40;;;20.70;1.00;;;;;;6216401;23;20403;-85
2021/05/16 14:47:53;;;;;;;41.93;2.33;;;20.00;1.00;;;;;;6215579;23;20400;-84
2021/05/16 14:50:22;;;;;;;42.40;2.30;;;19.70;1.00;;;;;;6224170;23;20407;-84
2021/05/16 14:52:48;;;;;;;41.77;3.03;;;19.10;1.00;;;;;;6225393;23;20408;-85
2021/05/16 14:55:15;;;;;;;39.80;1.90;;;18.10;1.00;;;;;;6224998;23;20424;-85
2021/05/16 14:57:42;;;;;;;37.07;2.00;;;17.70;2.80;;;;;;6215552;23;20493;-84
2021/05/16 15:00:10;;;;;;;35.13;1.93;;;17.50;4.60;;;;;;6215064;23;20404;-85
2021/05/16 15:02:36;;;;;;;33.93;1.87;;;17.50;4.20;;;;;;6225157;23;20458;-86
2021/05/16 15:05:17;;;;;;;32.50;1.50;;;17.80;3.50;;;;;;6213712;23;20432;-84
2021/05/16 15:07:44;;;;;;;35.73;1.97;;;18.20;4.00;;;;;;6214801;23;20478;-85
2021/05/16 15:10:11;;;;;;;33.33;1.70;;;18.40;4.70;;;;;;6225519;23;20416;-85
2021/05/16 15:12:40;;;;;;;34.00;2.27;;;18.70;1.20;;;;;;6215579;23;20404;-84
2021/05/16 15:15:07;;;;;;;34.90;1.70;;;18.40;1.00;;;;;;6214916;23;20911;-84
2021/05/16 15:17:36;;;;;;;32.27;1.80;;;19.30;1.00;;;;;;6225525;23;20487;-86
2021/05/16 15:20:04;;;;;;;38.47;3.70;;;20.10;1.00;;;;;;6224008;23;20430;-84
2021/05/16 15:22:33;;;;;;;34.43;1.80;;;19.90;1.00;;;;;;6215437;23;20692;-84
2021/05/16 15:24:59;;;;;;;36.80;2.07;;;20.90;1.00;;;;;;6225425;23;20427;-85
2021/05/16 15:27:26;;;;;;;37.43;1.83;;;22.00;1.00;;;;;;6225112;23;20415;-85
2021/05/16 15:29:57;;;;;;;43.87;2.50;;;22.70;1.00;;;;;;6225170;23;20458;-85
2021/05/16 15:32:26;;;;;;;41.33;2.37;;;21.30;1.00;;;;;;6215190;23;20408;-84
2021/05/16 15:35:02;;;;;;;43.47;2.13;;;20.50;1.00;;;;;;6224276;23;20411;-84
2021/05/16 15:37:29;;;;;;;41.60;1.87;;;19.80;1.00;;;;;;6225097;23;21152;-85
2021/05/16 15:39:55;;;;;;;41.80;1.80;;;19.20;1.00;;;;;;6225144;23;20412;-83
2021/05/16 15:42:23;;;;;;;39.67;1.80;;;18.70;1.00;;;;;;6215784;23;20435;-83
2021/05/16 15:44:50;;;;;;;38.40;1.80;;;18.50;1.00;;;;;;6216759;23;20484;-83
2021/05/16 15:47:18;;;;;;;35.97;1.50;;;18.10;1.00;;;;;;6216399;23;20412;-82
2021/05/16 15:49:45;;;;;;;34.87;1.60;;;18.30;1.00;;;;;;6225572;23;20926;-84
2021/05/16 15:52:11;;;;;;;34.60;1.97;;;18.30;1.00;;;;;;6216545;23;20400;-84
2021/05/16 15:55:11;;;;;;;31.50;1.57;;;18.10;1.00;;;;;;6217214;23;20494;-84
2021/05/16 15:57:43;;;;;;;33.00;1.80;;;18.40;1.00;;;;;;6210587;23;20999;-83
2021/05/16 16:00:12;;;;;;;32.37;1.50;;;18.60;1.00;;;;;;6216455;23;20395;-83
2021/05/16 16:02:47;;;;;;;35.33;1.70;;;17.90;1.00;;;;;;6227230;23;20486;-84
2021/05/16 16:05:15;;;;;;;33.33;2.03;;;17.90;1.00;;;;;;6225500;23;20407;-84
2021/05/16 16:07:41;;;;;;;32.70;1.60;;;18.00;1.00;;;;;;6216557;23;20436;-84
2021/05/16 16:10:11;;;;;;;30.97;1.50;;;18.10;1.00;;;;;;6226903;23;20416;-85
2021/05/16 16:12:40;;;;;;;31.53;1.40;;;17.70;1.00;;;;;;6217094;23;20717;-84
2021/05/16 16:15:07;;;;;;;31.27;1.73;;;17.60;1.00;;;;;;6214692;23;20396;-86
2021/05/16 16:17:35;;;;;;;31.07;1.53;;;17.10;1.00;;;;;;6223838;23;20535;-83
2021/05/16 16:20:04;;;;;;;30.30;1.90;;;16.80;2.20;;;;;;6214137;23;20393;-83
2021/05/16 16:22:37;;;;;;;29.10;1.40;;;16.50;2.10;;;;;;6225020;23;20400;-83
2021/05/16 16:25:12;;;;;;;27.80;1.70;;;16.30;1.90;;;;;;6225531;23;20400;-84
2021/05/16 16:27:39;;;;;;;27.00;1.57;;;16.10;1.80;;;;;;6215175;23;20403;-82
2021/05/16 16:30:31;;;;;;;26.70;1.80;;;16.00;4.50;;;;;;6215136;23;20546;-83
2021/05/16 16:33:10;;;;;;;27.20;1.60;;;15.30;7.20;;;;;;6225530;23;20408;-84
2021/05/16 16:35:41;;;;;;;26.50;1.80;;;14.80;10.30;;;;;;6213764;23;20428;-84
2021/05/16 16:38:14;;;;;;;23.50;1.67;;;14.60;13.50;;;;;;6225535;23;20465;-84
2021/05/16 16:40:43;;;;;;;24.47;1.50;;;14.30;12.30;;;;;;6224814;23;20405;-84
2021/05/16 16:43:12;;;;;;;22.20;1.50;;;14.20;14.30;;;;;;6225318;23;20408;-83
2021/05/16 16:45:41;;;;;;;21.07;1.27;;;14.00;15.40;;;;;;6225078;23;20420;-84
2021/05/16 16:48:11;;;;;;;20.80;1.40;;;13.80;12.90;;;;;;6225503;23;20479;-84
2021/05/16 16:50:45;;;;;;;21.43;1.60;;;13.80;15.20;;;;;;6223249;23;20412;-83
2021/05/16 16:53:26;;;;;;;23.07;1.37;;;13.90;16.20;;;;;;6224845;23;20454;-82
2021/05/16 16:56:01;;;;;;;23.20;1.30;;;14.90;15.40;;;;;;6224328;23;20423;-82
2021/05/16 16:58:29;;;;;;;20.57;1.30;;;15.50;13.90;;;;;;6225223;23;20721;-84
2021/05/16 17:00:57;;;;;;;21.90;1.20;;;17.20;8.70;;;;;;6215009;23;20466;-84
2021/05/16 17:03:32;;;;;;;25.80;1.60;;;16.60;6.30;;;;;;6223823;23;20408;-84
2021/05/16 17:06:00;;;;;;;25.20;1.40;;;16.20;7.10;;;;;;6214648;23;20527;-82
2021/05/16 17:08:28;;;;;;;24.50;1.30;;;16.10;6.80;;;;;;6224915;23;20450;-82
2021/05/16 17:11:02;;;;;;;24.63;1.33;;;15.90;6.40;;;;;;6225107;23;20416;-83
2021/05/16 17:13:30;;;;;;;26.30;1.50;;;15.40;8.90;;;;;;6226014;23;20419;-83
2021/05/16 17:16:00;;;;;;;23.97;1.23;;;15.20;9.60;;;;;;6226551;23;20428;-85
2021/05/16 17:18:26;;;;;;;26.60;1.87;;;15.10;12.10;;;;;;6215030;23;20400;-83
2021/05/16 17:21:06;;;;;;;22.70;1.33;;;15.10;12.60;;;;;;6225438;23;20412;-84
2021/05/16 17:23:57;;;;;;;22.07;1.30;;;17.10;7.80;;;;;;6216233;23;20400;-84